Time;durP1;ratioP1;P1;durP2;ratioP2;P2;SDS_P1;SDS_P2;PMS_P1;PMS_P2;Temp;Humidity;BMP_temperature;BMP_pressure;BME280_temperature;BME280_humidity;BME280_pressure;Samples;Min_cycle;Max_cycle;Signal;HPM_P1;HPM_P2
2022/05/28 00:01:46;;;;;;;15.07;2.63;;;;;;;13.00;60.77;102222.03;5018831;28;20034;-73
2022/05/28 00:04:13;;;;;;;9.63;2.38;;;;;;;13.00;61.18;102228.91;5016365;28;20037;-74
2022/05/28 00:06:39;;;;;;;12.35;2.80;;;;;;;12.96;61.28;102229.59;5009147;28;20091;-74
2022/05/28 00:09:05;;;;;;;11.38;2.40;;;;;;;12.90;61.48;102219.91;5017191;28;20041;-74
2022/05/28 00:11:34;;;;;;;11.52;2.58;;;;;;;12.93;61.78;102224.31;5019540;28;20075;-73
2022/05/28 00:14:01;;;;;;;12.90;2.55;;;;;;;12.92;62.06;102214.78;5024015;28;20116;-74
2022/05/28 00:16:27;;;;;;;14.32;2.78;;;;;;;12.88;61.91;102224.13;5018279;28;20044;-74
2022/05/28 00:18:53;;;;;;;15.20;2.72;;;;;;;12.87;61.63;102212.06;5020490;28;20025;-73
2022/05/28 00:21:25;;;;;;;13.23;2.60;;;;;;;12.88;62.11;102206.94;5024890;28;20665;-73
2022/05/28 00:23:51;;;;;;;12.98;2.65;;;;;;;12.82;62.16;102206.69;5020277;28;20054;-72
2022/05/28 00:26:17;;;;;;;12.98;2.90;;;;;;;12.92;62.40;102214.78;5018328;28;20120;-73
2022/05/28 00:28:42;;;;;;;12.13;2.90;;;;;;;12.87;62.40;102206.91;5021976;28;20459;-73
2022/05/28 00:31:08;;;;;;;11.88;2.75;;;;;;;12.83;62.66;102212.75;5019447;28;20036;-73
2022/05/28 00:33:34;;;;;;;14.55;2.75;;;;;;;12.85;62.41;102211.97;5020855;28;20033;-73
2022/05/28 00:36:01;;;;;;;12.30;3.17;;;;;;;12.79;62.00;102213.41;5017340;28;20538;-73
2022/05/28 00:38:27;;;;;;;15.85;2.60;;;;;;;12.85;62.52;102209.38;5019113;28;20420;-74
2022/05/28 00:40:58;;;;;;;11.95;2.50;;;;;;;12.83;62.49;102208.47;5015271;28;20087;-74
2022/05/28 00:43:24;;;;;;;12.23;2.70;;;;;;;12.81;62.80;102204.94;5014304;28;20030;-74
2022/05/28 00:45:52;;;;;;;10.25;2.90;;;;;;;12.79;62.63;102211.72;5023707;28;20030;-74
2022/05/28 00:48:26;;;;;;;11.77;2.85;;;;;;;12.87;62.96;102207.78;5015277;28;20108;-73
2022/05/28 00:50:51;;;;;;;12.70;2.70;;;;;;;12.86;62.95;102203.44;5016627;28;20376;-73
2022/05/28 00:53:18;;;;;;;16.20;2.78;;;;;;;12.86;63.01;102200.84;5014881;28;20667;-73
2022/05/28 00:55:44;;;;;;;13.50;2.80;;;;;;;12.83;63.21;102200.72;5025481;28;20037;-74
2022/05/28 00:58:10;;;;;;;12.70;2.60;;;;;;;12.84;63.41;102201.59;5016994;28;20025;-73
2022/05/28 01:00:37;;;;;;;14.52;3.05;;;;;;;12.88;63.60;102191.47;5018402;28;20353;-74
2022/05/28 01:03:03;;;;;;;9.85;2.78;;;;;;;12.83;63.55;102198.13;5020223;28;20032;-73
2022/05/28 01:05:41;;;;;;;13.02;2.85;;;;;;;12.89;63.88;102192.34;5029740;28;20044;-73
2022/05/28 01:08:06;;;;;;;11.57;2.70;;;;;;;12.93;63.80;102193.34;5019743;28;20715;-73
2022/05/28 01:11:00;;;;;;;12.60;2.90;;;;;;;12.97;63.25;102195.22;5023356;28;20366;-73
2022/05/28 01:13:36;;;;;;;13.85;3.08;;;;;;;12.93;63.81;102183.03;5022499;28;20025;-73
2022/05/28 01:16:08;;;;;;;12.93;2.60;;;;;;;12.89;63.92;102187.16;5017371;28;20140;-73
2022/05/28 01:18:49;;;;;;;11.43;2.95;;;;;;;12.92;63.50;102186.41;5025257;28;20018;-73
2022/05/28 01:21:36;;;;;;;11.10;2.53;;;;;;;12.86;63.85;102182.78;5017207;28;20075;-73
2022/05/28 01:24:17;;;;;;;12.90;3.22;;;;;;;12.78;63.44;102180.69;5015725;28;20036;-73
2022/05/28 01:27:03;;;;;;;12.00;2.75;;;;;;;12.76;64.30;102185.81;5013167;28;20045;-73
2022/05/28 01:29:36;;;;;;;12.20;2.53;;;;;;;12.74;64.22;102183.97;5024935;28;20862;-73
2022/05/28 01:32:03;;;;;;;9.50;2.50;;;;;;;12.61;64.61;102185.16;5019502;28;20033;-73
2022/05/28 01:34:31;;;;;;;10.82;2.70;;;;;;;12.66;64.86;102182.78;5020602;28;20041;-73
2022/05/28 01:36:57;;;;;;;10.35;2.90;;;;;;;12.65;65.30;102189.66;5022852;28;20048;-73
2022/05/28 01:39:23;;;;;;;16.30;3.15;;;;;;;12.66;65.32;102188.81;5022830;28;21802;-73
2022/05/28 01:41:50;;;;;;;13.40;3.13;;;;;;;12.65;65.81;102181.91;5020964;28;20029;-72
2022/05/28 01:44:17;;;;;;;11.90;2.78;;;;;;;12.60;65.64;102181.72;5018088;28;20037;-73
2022/05/28 01:46:45;;;;;;;11.63;2.75;;;;;;;12.67;65.52;102184.53;5024872;28;20612;-73
2022/05/28 01:49:14;;;;;;;10.80;2.70;;;;;;;12.64;65.72;102180.16;5014455;28;20053;-73
2022/05/28 01:51:46;;;;;;;11.18;2.83;;;;;;;12.66;66.06;102193.09;5018774;28;20025;-73
2022/05/28 01:54:14;;;;;;;13.70;2.90;;;;;;;12.63;65.77;102190.41;5018544;28;20040;-73
2022/05/28 01:56:48;;;;;;;12.40;3.20;;;;;;;12.65;65.61;102183.59;5014225;28;20032;-73
2022/05/28 01:59:16;;;;;;;10.45;2.88;;;;;;;12.59;65.89;102189.41;5018690;28;20036;-73
2022/05/28 02:01:42;;;;;;;12.68;2.95;;;;;;;12.50;65.88;102189.03;5019265;28;20025;-73
2022/05/28 02:04:09;;;;;;;15.27;2.72;;;;;;;12.47;66.23;102188.91;5016376;28;20123;-73
2022/05/28 02:06:37;;;;;;;13.60;3.13;;;;;;;12.40;66.86;102186.88;5015733;28;20025;-74
2022/05/28 02:09:05;;;;;;;13.07;3.30;;;;;;;12.30;67.24;102194.22;5014647;28;20077;-73
2022/05/28 02:11:59;;;;;;;10.45;2.80;;;;;;;12.42;66.91;102199.00;5019283;28;20050;-72
2022/05/28 02:14:46;;;;;;;10.45;2.78;;;;;;;12.48;66.13;102193.22;5022268;28;20120;-72
2022/05/28 02:17:24;;;;;;;10.38;2.63;;;;;;;12.30;67.39;102185.59;5019060;28;20590;-73
2022/05/28 02:20:13;;;;;;;10.75;2.75;;;;;;;12.40;66.65;102185.19;5023262;28;20029;-73
2022/05/28 02:23:07;;;;;;;17.15;3.08;;;;;;;12.41;66.68;102180.91;5020033;28;20032;-73
2022/05/28 02:25:59;;;;;;;13.32;3.10;;;;;;;12.37;66.46;102191.91;5015798;28;20124;-73
2022/05/28 02:28:27;;;;;;;14.68;3.33;;;;;;;12.21;67.96;102182.66;5001993;28;20045;-72
2022/05/28 02:31:01;;;;;;;16.83;3.10;;;;;;;12.23;67.80;102181.88;5020570;28;20468;-73
2022/05/28 02:33:28;;;;;;;13.38;3.40;;;;;;;12.17;68.24;102178.16;5018105;28;20288;-72
2022/05/28 02:35:53;;;;;;;11.43;2.72;;;;;;;12.16;68.38;102176.41;5013493;28;20575;-73
2022/05/28 02:38:19;;;;;;;12.07;2.80;;;;;;;12.13;68.30;102177.16;5019065;28;20132;-73
2022/05/28 02:40:45;;;;;;;8.82;2.83;;;;;;;12.15;68.78;102167.81;5014153;28;20029;-73
2022/05/28 02:43:11;;;;;;;11.43;2.72;;;;;;;12.14;68.58;102163.47;5011671;28;20472;-72
2022/05/28 02:45:38;;;;;;;11.00;2.30;;;;;;;12.13;68.81;102165.97;5016246;28;20041;-73
2022/05/28 02:48:04;;;;;;;11.23;3.20;;;;;;;12.05;69.21;102161.34;5019989;28;20116;-74
2022/05/28 02:50:29;;;;;;;13.35;3.10;;;;;;;12.11;68.92;102160.75;5020677;28;20551;-73
2022/05/28 02:52:56;;;;;;;11.18;2.80;;;;;;;12.11;69.55;102153.00;5018489;28;20403;-73
2022/05/28 02:55:22;;;;;;;10.35;2.60;;;;;;;12.10;69.52;102156.41;5015002;28;20535;-73
2022/05/28 02:57:47;;;;;;;13.13;2.60;;;;;;;12.07;69.79;102154.59;5016125;28;20051;-73
2022/05/28 03:00:14;;;;;;;11.05;2.83;;;;;;;12.03;69.73;102151.81;5016015;28;20516;-73
2022/05/28 03:02:41;;;;;;;11.32;2.85;;;;;;;12.10;69.71;102158.09;5015856;28;20048;-73
2022/05/28 03:05:07;;;;;;;10.73;3.00;;;;;;;12.01;70.30;102151.75;5018232;28;20044;-73
2022/05/28 03:07:32;;;;;;;9.27;2.35;;;;;;;12.04;70.65;102161.31;5015526;28;20376;-73
2022/05/28 03:09:58;;;;;;;12.98;2.70;;;;;;;11.98;70.58;102164.50;5016889;28;22164;-73
2022/05/28 03:12:23;;;;;;;9.90;2.53;;;;;;;11.98;71.00;102164.50;5016334;28;20504;-73
2022/05/28 03:14:48;;;;;;;11.02;2.60;;;;;;;11.96;70.85;102160.97;5022966;28;20029;-72
2022/05/28 03:17:14;;;;;;;9.52;2.65;;;;;;;11.98;70.63;102164.50;5019972;28;20029;-73
2022/05/28 03:19:39;;;;;;;12.77;2.80;;;;;;;11.96;71.33;102165.25;5025340;28;20474;-73
2022/05/28 03:22:05;;;;;;;8.95;2.40;;;;;;;11.92;71.83;102164.22;5001258;28;20391;-73
2022/05/28 03:24:30;;;;;;;13.10;2.90;;;;;;;11.89;71.75;102163.22;5010676;28;20048;-74
2022/05/28 03:26:57;;;;;;;15.48;2.70;;;;;;;11.91;71.87;102172.78;5015900;28;20080;-73
2022/05/28 03:29:24;;;;;;;13.77;2.33;;;;;;;11.90;71.73;102165.00;5016130;28;20464;-73
2022/05/28 03:31:50;;;;;;;15.30;2.78;;;;;;;11.90;71.82;102170.16;5014210;28;20052;-72
2022/05/28 03:34:15;;;;;;;12.65;2.50;;;;;;;11.89;72.32;102173.50;5017814;28;21057;-73
2022/05/28 03:36:41;;;;;;;12.07;2.60;;;;;;;11.87;72.15;102170.00;5015894;28;20496;-72
2022/05/28 03:39:06;;;;;;;10.32;2.20;;;;;;;11.87;72.84;102173.47;5015506;28;20042;-72
2022/05/28 03:41:32;;;;;;;11.75;2.80;;;;;;;11.81;72.72;102171.50;5013200;28;20038;-72
2022/05/28 03:43:58;;;;;;;11.73;2.75;;;;;;;11.82;72.72;102173.25;5018570;28;20022;-72
2022/05/28 03:46:32;;;;;;;12.15;2.78;;;;;;;11.88;72.63;102182.06;5013699;28;20040;-74
2022/05/28 03:49:01;;;;;;;10.82;2.47;;;;;;;11.87;73.15;102175.16;5017809;28;20109;-74
2022/05/28 03:51:27;;;;;;;;;;;;;;;12.04;70.88;102179.34;5019973;28;20779;-75
2022/05/28 03:53:53;;;;;;;11.02;2.50;;;;;;;11.88;73.04;102170.06;5017788;28;19991;-73
2022/05/28 03:56:20;;;;;;;9.48;2.83;;;;;;;11.86;73.06;102179.44;5018082;28;20037;-72
2022/05/28 03:58:45;;;;;;;14.52;2.60;;;;;;;11.86;73.37;102176.84;5018490;28;20026;-73
2022/05/28 04:01:11;;;;;;;7.93;2.50;;;;;;;11.87;73.58;102180.31;5017151;28;20040;-72
2022/05/28 04:03:36;;;;;;;10.05;2.45;;;;;;;11.81;73.88;102174.06;5018543;28;20590;-73
2022/05/28 04:06:03;;;;;;;9.32;2.45;;;;;;;11.86;73.91;102182.00;5021453;28;20564;-73
2022/05/28 04:08:28;;;;;;;10.40;2.33;;;;;;;11.85;74.14;102180.25;5016266;28;20434;-73
2022/05/28 04:10:54;;;;;;;11.07;2.60;;;;;;;11.82;74.07;102182.69;5018349;28;20056;-72
2022/05/28 04:13:19;;;;;;;10.10;2.50;;;;;;;11.82;74.50;102183.56;5011046;28;20041;-74
2022/05/28 04:15:48;;;;;;;9.25;2.33;;;;;;;11.86;74.53;102184.59;5024647;28;20451;-72
2022/05/28 04:18:14;;;;;;;14.05;2.72;;;;;;;11.81;74.77;102188.66;5011377;28;20053;-74
2022/05/28 04:20:40;;;;;;;14.77;2.45;;;;;;;11.88;74.64;102179.50;5021131;28;20554;-72
2022/05/28 04:23:05;;;;;;;15.85;2.90;;;;;;;11.90;74.94;102190.78;5020899;28;20045;-73
2022/05/28 04:25:31;;;;;;;10.60;2.55;;;;;;;11.94;74.99;102187.50;5014704;28;20041;-73
2022/05/28 04:27:56;;;;;;;12.15;2.45;;;;;;;11.97;74.90;102188.53;5020930;28;20439;-73
2022/05/28 04:30:21;;;;;;;11.50;2.35;;;;;;;11.99;75.09;102198.88;5016092;28;20435;-73
2022/05/28 04:32:47;;;;;;;12.82;2.30;;;;;;;12.03;75.44;102196.53;5020150;28;20033;-73
2022/05/28 04:35:12;;;;;;;12.73;2.67;;;;;;;12.02;75.33;102197.34;5018634;28;20060;-73
2022/05/28 04:37:38;;;;;;;15.15;2.47;;;;;;;12.08;75.45;102202.75;5018383;28;20081;-73
2022/05/28 04:40:04;;;;;;;13.00;2.42;;;;;;;12.11;75.61;102201.13;5025065;28;21047;-73
2022/05/28 04:42:29;;;;;;;12.57;2.25;;;;;;;12.13;75.97;102202.94;5019444;28;20111;-73
2022/05/28 04:44:56;;;;;;;13.00;2.30;;;;;;;12.19;75.71;102210.94;5020770;28;20129;-73
2022/05/28 04:47:22;;;;;;;11.75;2.28;;;;;;;12.20;75.75;102207.56;5023286;28;20052;-73
2022/05/28 04:49:47;;;;;;;11.05;2.13;;;;;;;12.20;76.26;102207.56;5024436;28;20029;-73
2022/05/28 04:52:13;;;;;;;13.52;2.33;;;;;;;12.21;75.82;102205.88;5021553;28;20095;-73
2022/05/28 04:54:38;;;;;;;11.70;2.60;;;;;;;12.29;75.71;102209.63;5023790;28;20037;-73
2022/05/28 04:57:04;;;;;;;12.02;1.90;;;;;;;12.28;75.68;102211.34;5017456;28;20044;-73
2022/05/28 04:59:29;;;;;;;11.75;1.88;;;;;;;12.35;75.33;102209.91;5024581;28;20497;-73
2022/05/28 05:01:55;;;;;;;10.65;1.77;;;;;;;12.33;74.93;102212.41;5022586;28;20099;-73
2022/05/28 05:04:20;;;;;;;8.43;1.92;;;;;;;12.38;74.71;102216.88;5017504;28;20734;-73
2022/05/28 05:06:45;;;;;;;9.25;1.55;;;;;;;12.42;73.51;102208.44;5021014;28;20040;-73
2022/05/28 05:09:11;;;;;;;7.30;1.45;;;;;;;12.47;73.39;102215.56;5022075;28;20176;-72
2022/05/28 05:11:36;;;;;;;10.90;1.98;;;;;;;12.52;72.87;102221.81;5018097;28;20068;-73
2022/05/28 05:14:01;;;;;;;10.20;1.75;;;;;;;12.56;73.01;102212.50;5019725;28;20037;-73
2022/05/28 05:16:27;;;;;;;14.15;1.80;;;;;;;12.60;72.58;102220.41;5015690;28;20041;-74
2022/05/28 05:18:52;;;;;;;8.57;1.65;;;;;;;12.64;72.96;102216.28;5020852;28;20034;-73
2022/05/28 05:21:18;;;;;;;12.02;1.63;;;;;;;12.71;72.49;102222.56;5014217;28;20034;-72
2022/05/28 05:23:44;;;;;;;12.50;1.65;;;;;;;12.73;71.89;102219.22;5014754;28;20038;-73
2022/05/28 05:26:11;;;;;;;9.90;1.50;;;;;;;12.80;71.74;102222.94;5007860;28;21138;-73
2022/05/28 05:28:37;;;;;;;8.07;1.30;;;;;;;12.85;71.14;102224.88;5011676;28;20045;-73
2022/05/28 05:31:03;;;;;;;10.38;1.60;;;;;;;12.86;70.34;102223.16;5008454;28;20495;-73
2022/05/28 05:33:28;;;;;;;5.97;1.20;;;;;;;12.89;70.79;102220.72;5013452;28;20029;-73
2022/05/28 05:35:53;;;;;;;9.13;1.30;;;;;;;12.97;70.44;102223.59;5012421;28;20044;-73
2022/05/28 05:38:19;;;;;;;9.27;1.50;;;;;;;13.07;70.07;102223.16;5015304;28;20025;-73
2022/05/28 05:40:44;;;;;;;9.88;1.55;;;;;;;13.12;69.99;102227.69;5017062;28;20944;-73
2022/05/28 05:43:09;;;;;;;9.63;1.35;;;;;;;13.14;69.24;102228.63;5017893;28;20136;-73
2022/05/28 05:45:35;;;;;;;10.52;1.58;;;;;;;13.12;68.22;102225.09;5001888;28;20080;-73
2022/05/28 05:48:01;;;;;;;9.07;1.58;;;;;;;13.16;68.43;102218.34;5024108;28;20033;-73
2022/05/28 05:50:26;;;;;;;9.77;1.60;;;;;;;13.19;68.71;102227.94;5021637;28;20041;-74
2022/05/28 05:52:52;;;;;;;10.82;1.35;;;;;;;13.20;68.10;102235.72;5018029;28;20117;-73
2022/05/28 05:55:17;;;;;;;11.82;1.77;;;;;;;13.20;67.78;102234.84;5019234;28;20045;-73
2022/05/28 05:57:43;;;;;;;6.60;1.13;;;;;;;13.18;66.92;102234.81;5018816;28;20021;-73
2022/05/28 06:00:09;;;;;;;7.25;1.45;;;;;;;13.19;66.54;102230.50;5014703;28;20041;-73
2022/05/28 06:02:34;;;;;;;9.82;1.17;;;;;;;13.25;66.36;102239.41;5015820;28;20067;-73
2022/05/28 06:04:59;;;;;;;8.75;1.20;;;;;;;13.29;65.91;102236.13;5018122;28;20052;-73
2022/05/28 06:07:26;;;;;;;7.75;1.00;;;;;;;13.37;64.69;102232.13;5014280;28;20570;-73
2022/05/28 06:09:51;;;;;;;6.53;1.27;;;;;;;13.54;64.88;102239.66;5015776;28;20033;-73
2022/05/28 06:12:16;;;;;;;12.73;1.10;;;;;;;13.60;63.77;102237.31;5014512;28;20064;-73
2022/05/28 06:14:42;;;;;;;5.90;0.98;;;;;;;13.55;62.07;102242.28;5015174;28;20037;-73
2022/05/28 06:17:07;;;;;;;5.78;1.20;;;;;;;13.55;61.66;102238.84;5012564;28;20163;-74
2022/05/28 06:19:33;;;;;;;10.80;1.20;;;;;;;13.59;61.54;102240.69;5016036;28;20091;-73
2022/05/28 06:21:59;;;;;;;4.80;1.10;;;;;;;13.71;61.94;102246.34;5015920;28;20460;-73
2022/05/28 06:24:25;;;;;;;10.13;1.13;;;;;;;13.71;60.96;102246.34;5014472;28;20041;-74
2022/05/28 06:26:51;;;;;;;5.55;0.82;;;;;;;13.69;60.68;102243.69;5015684;28;20030;-73
2022/05/28 06:29:16;;;;;;;9.27;1.30;;;;;;;13.72;60.77;102252.41;5021438;28;20038;-73
2022/05/28 06:31:45;;;;;;;6.40;1.13;;;;;;;13.77;60.95;102251.75;5014671;28;20148;-73
2022/05/28 06:34:10;;;;;;;7.93;1.10;;;;;;;13.85;61.22;102252.91;5014327;28;20030;-73
2022/05/28 06:36:35;;;;;;;6.50;1.20;;;;;;;13.95;61.35;102248.91;5011644;28;20514;-74
2022/05/28 06:39:01;;;;;;;10.40;1.95;;;;;;;14.08;61.28;102256.31;5014917;28;20061;-74
2022/05/28 06:41:26;;;;;;;10.60;1.20;;;;;;;14.09;58.60;102247.72;5017591;28;20094;-74
2022/05/28 06:43:52;;;;;;;8.45;1.08;;;;;;;14.14;57.25;102263.44;5009104;28;20503;-74
2022/05/28 06:46:18;;;;;;;6.18;1.10;;;;;;;14.01;57.43;102251.72;5019490;28;20044;-73
2022/05/28 06:48:43;;;;;;;8.07;1.38;;;;;;;14.14;58.69;102253.06;5013402;28;20045;-74
2022/05/28 06:51:09;;;;;;;5.72;0.90;;;;;;;14.14;57.63;102258.25;5019770;28;20025;-73
2022/05/28 06:53:38;;;;;;;4.03;0.80;;;;;;;14.17;57.41;102253.16;5014070;28;20037;-74
2022/05/28 06:56:05;;;;;;;9.25;1.52;;;;;;;14.22;56.84;102254.22;5014378;28;20168;-73
2022/05/28 06:58:30;;;;;;;4.78;1.00;;;;;;;14.34;56.74;102257.22;5018730;28;20118;-74
2022/05/28 07:00:56;;;;;;;5.90;1.08;;;;;;;14.54;57.23;102264.81;5014326;28;20037;-73
2022/05/28 07:03:25;;;;;;;7.80;1.15;;;;;;;14.72;57.53;102255.09;5011799;28;20034;-73
2022/05/28 07:05:51;;;;;;;7.57;1.30;;;;;;;14.88;57.46;102257.38;5012522;28;20393;-73
2022/05/28 07:08:17;;;;;;;5.30;1.30;;;;;;;14.97;57.12;102260.25;5011463;28;20041;-74
2022/05/28 07:10:48;;;;;;;6.47;1.10;;;;;;;15.00;56.54;102262.06;5012577;28;20053;-73
2022/05/28 07:13:14;;;;;;;13.75;1.90;;;;;;;15.08;56.56;102262.31;5012780;28;20041;-73
2022/05/28 07:15:40;;;;;;;10.85;1.23;;;;;;;15.02;56.26;102258.69;5011933;28;21065;-74
2022/05/28 07:18:07;;;;;;;5.20;1.10;;;;;;;14.97;56.11;102261.94;5015403;28;20039;-73
2022/05/28 07:20:32;;;;;;;6.80;1.63;;;;;;;15.09;56.70;102267.53;5019310;28;20117;-73
2022/05/28 07:22:58;;;;;;;6.78;1.13;;;;;;;15.10;53.92;102273.59;5015093;28;20104;-74
2022/05/28 07:25:24;;;;;;;5.88;1.58;;;;;;;15.21;54.31;102272.22;5013069;28;20072;-74
2022/05/28 07:27:49;;;;;;;8.63;1.60;;;;;;;15.24;54.00;102261.97;5011238;28;20038;-74
2022/05/28 07:30:16;;;;;;;6.90;1.05;;;;;;;15.44;54.39;102266.03;5017702;28;20037;-74
2022/05/28 07:32:41;;;;;;;6.30;1.00;;;;;;;15.43;51.76;102266.88;5015372;28;20041;-74
2022/05/28 07:35:07;;;;;;;5.28;1.00;;;;;;;15.43;51.19;102266.00;5003211;28;20052;-74
2022/05/28 07:37:33;;;;;;;6.97;1.20;;;;;;;15.46;50.99;102266.94;5003245;28;20128;-73
2022/05/28 07:39:59;;;;;;;7.35;1.27;;;;;;;15.44;51.04;102271.22;4990466;28;20033;-74
2022/05/28 07:42:27;;;;;;;8.02;0.93;;;;;;;15.51;51.76;102270.56;5001352;28;20075;-73
2022/05/28 07:44:52;;;;;;;8.30;1.10;;;;;;;15.46;51.17;102264.34;5006799;28;20036;-73
2022/05/28 07:47:18;;;;;;;7.93;1.35;;;;;;;15.49;52.12;102266.19;5010243;28;20037;-73
2022/05/28 07:49:44;;;;;;;5.18;1.48;;;;;;;15.52;51.00;102266.25;5007064;28;20065;-73
2022/05/28 07:52:10;;;;;;;6.45;2.13;;;;;;;15.62;50.92;102268.34;5006811;28;20038;-74
2022/05/28 07:54:35;;;;;;;7.22;1.02;;;;;;;15.54;50.86;102259.44;5007524;28;20026;-73
2022/05/28 07:57:01;;;;;;;5.22;1.20;;;;;;;15.51;50.50;102267.97;5007370;28;20443;-74
2022/05/28 07:59:26;;;;;;;6.03;1.10;;;;;;;15.36;50.40;102259.75;5012743;28;20033;-74
2022/05/28 08:01:52;;;;;;;6.03;1.30;;;;;;;15.26;50.61;102255.09;5008175;28;20034;-75
2022/05/28 08:04:17;;;;;;;7.60;1.50;;;;;;;15.25;51.07;102258.53;5009340;28;20116;-73
2022/05/28 08:06:43;;;;;;;7.32;1.20;;;;;;;15.38;52.43;102262.38;5008816;28;20034;-74
2022/05/28 08:09:10;;;;;;;8.07;1.20;;;;;;;15.56;51.89;102263.81;5007964;28;20167;-74
2022/05/28 08:11:36;;;;;;;7.82;1.25;;;;;;;15.50;49.81;102252.38;5008212;28;20088;-74
2022/05/28 08:14:03;;;;;;;4.60;0.90;;;;;;;15.54;51.23;102252.53;5009167;28;20492;-74
2022/05/28 08:16:29;;;;;;;8.05;2.13;;;;;;;15.49;49.34;102246.31;5011323;28;20049;-73
2022/05/28 08:18:55;;;;;;;8.00;1.95;;;;;;;15.36;49.37;102256.28;5009977;28;20013;-73
2022/05/28 08:24:05;;;;;;;5.25;1.30;;;;;;;15.33;50.57;102254.47;5017470;28;20099;-74
2022/05/28 08:26:31;;;;;;;8.10;1.20;;;;;;;15.25;49.86;102254.22;5019378;28;20134;-74
2022/05/28 08:28:56;;;;;;;5.68;1.20;;;;;;;15.18;49.09;102254.88;5020744;28;20028;-75
2022/05/28 08:31:23;;;;;;;8.85;1.20;;;;;;;15.23;49.62;102250.72;5026931;28;20067;-74
2022/05/28 08:33:48;;;;;;;6.55;0.93;;;;;;;15.42;50.40;102256.47;5024643;28;20033;-74
2022/05/28 08:36:15;;;;;;;7.07;1.08;;;;;;;15.57;50.64;102259.50;5023850;28;20083;-73
2022/05/28 08:38:40;;;;;;;4.57;1.00;;;;;;;15.82;49.66;102254.22;5021152;28;20105;-73
2022/05/28 08:41:19;;;;;;;8.75;1.15;;;;;;;15.97;49.61;102256.38;5018997;28;20116;-75
2022/05/28 08:43:49;;;;;;;3.97;1.00;;;;;;;16.06;47.09;102253.16;5017325;28;20112;-73
2022/05/28 08:46:23;;;;;;;4.25;0.90;;;;;;;16.17;47.00;102246.56;5020204;28;20076;-70
2022/05/28 08:48:54;;;;;;;5.82;1.25;;;;;;;16.37;47.91;102254.88;5021853;28;20395;-74
2022/05/28 08:51:41;;;;;;;4.82;0.73;;;;;;;16.53;47.71;102248.38;5022772;28;20029;-71
2022/05/28 08:54:42;;;;;;;5.18;1.27;;;;;;;16.63;45.97;102250.38;5017020;28;20174;-69
2022/05/28 08:57:17;;;;;;;6.20;1.00;;;;;;;16.54;44.13;102260.50;5020884;28;20030;-71
2022/05/28 09:00:11;;;;;;;5.00;1.00;;;;;;;16.54;45.89;102261.38;5027891;28;20021;-72
2022/05/28 09:03:01;;;;;;;5.38;1.00;;;;;;;16.58;46.39;102262.34;5021192;28;20020;-73
2022/05/28 09:06:04;;;;;;;8.68;1.30;;;;;;;16.54;46.56;102263.97;5019396;28;20108;-73
2022/05/28 09:08:35;;;;;;;9.05;1.23;;;;;;;16.44;45.54;102259.41;5017289;28;20041;-71
2022/05/28 09:11:35;;;;;;;6.43;1.10;;;;;;;16.47;46.97;102256.88;5028668;28;20486;-72
2022/05/28 09:14:28;;;;;;;7.25;1.20;;;;;;;16.60;47.28;102258.94;5022899;28;20041;-71
2022/05/28 09:16:59;;;;;;;6.85;0.93;;;;;;;16.70;45.04;102251.38;5017961;28;20041;-71
2022/05/28 09:19:32;;;;;;;2.45;0.77;;;;;;;16.69;43.85;102254.84;5027692;28;20029;-72
2022/05/28 09:21:57;;;;;;;6.65;0.93;;;;;;;16.64;43.19;102254.72;5022518;28;20036;-71
2022/05/28 09:24:29;;;;;;;4.80;0.95;;;;;;;16.78;44.51;102244.69;5025762;28;20025;-71
2022/05/28 09:27:23;;;;;;;6.88;1.10;;;;;;;16.95;44.32;102245.09;5019260;28;20083;-71
2022/05/28 09:30:13;;;;;;;4.10;1.00;;;;;;;17.14;44.50;102247.28;5022249;28;20403;-71
2022/05/28 09:33:09;;;;;;;7.10;1.33;;;;;;;17.33;44.66;102246.84;5025853;28;20037;-72
2022/05/28 09:35:52;;;;;;;5.57;1.17;;;;;;;17.34;44.46;102242.53;5025442;28;20151;-71
2022/05/28 09:38:28;;;;;;;7.55;1.40;;;;;;;17.19;43.86;102239.59;5022894;28;20029;-71
2022/05/28 09:41:14;;;;;;;7.07;1.17;;;;;;;17.00;43.76;102253.91;5022728;28;20032;-71
2022/05/28 09:44:04;;;;;;;4.03;1.10;;;;;;;17.10;45.15;102241.13;5017682;28;20033;-71
2022/05/28 09:46:35;;;;;;;6.35;1.20;;;;;;;17.25;44.32;102242.34;5022753;28;20029;-71
2022/05/28 09:49:12;;;;;;;6.22;1.25;;;;;;;17.45;44.64;102246.25;5026075;28;20113;-71
2022/05/28 09:51:38;;;;;;;5.80;1.20;;;;;;;17.50;44.13;102246.34;5028890;28;20116;-71
2022/05/28 09:54:16;;;;;;;5.68;1.25;;;;;;;17.68;45.46;102237.22;5022507;28;20113;-71
2022/05/28 09:56:45;;;;;;;11.88;1.50;;;;;;;17.56;41.93;102239.56;5019141;28;20029;-71
2022/05/28 09:59:35;;;;;;;4.30;1.00;;;;;;;17.51;41.83;102237.69;5026281;28;20025;-71
2022/05/28 10:02:12;;;;;;;8.18;1.25;;;;;;;17.46;41.99;102239.31;5023398;28;20479;-71
2022/05/28 10:05:13;;;;;;;4.68;1.30;;;;;;;17.35;42.59;102240.00;5019234;28;20040;-71
2022/05/28 10:07:49;;;;;;;7.93;1.15;;;;;;;17.18;43.39;102240.44;5023390;28;20761;-71
2022/05/28 10:10:19;;;;;;;9.65;1.40;;;;;;;17.10;43.61;102248.03;5028508;28;20025;-71
2022/05/28 10:12:45;;;;;;;6.53;1.00;;;;;;;16.88;42.89;102239.75;5027165;28;20080;-71
2022/05/28 10:15:17;;;;;;;8.80;1.40;;;;;;;17.02;41.79;102239.19;5026656;28;20472;-71
2022/05/28 10:17:52;;;;;;;11.38;1.10;;;;;;;17.20;40.67;102224.03;5022203;28;20448;-72
2022/05/28 10:20:20;;;;;;;5.50;1.02;;;;;;;17.40;40.61;102229.66;5024774;28;20022;-72
2022/05/28 10:22:47;;;;;;;4.80;0.95;;;;;;;17.48;39.48;102222.06;5024905;28;20040;-72
2022/05/28 10:25:48;;;;;;;5.82;1.10;;;;;;;17.78;41.69;102227.91;5018804;28;20088;-72
2022/05/28 10:28:26;;;;;;;6.07;1.25;;;;;;;17.69;40.20;102223.34;5018286;28;20040;-71
2022/05/28 10:30:51;;;;;;;5.80;1.13;;;;;;;17.57;40.79;102228.31;5018460;28;20117;-72
2022/05/28 10:33:20;;;;;;;5.93;1.13;;;;;;;17.53;40.96;102230.81;5022065;28;20120;-74
2022/05/28 10:35:47;;;;;;;8.20;1.50;;;;;;;17.73;41.74;102233.88;5024582;28;20220;-74
2022/05/28 10:38:23;;;;;;;7.88;1.45;;;;;;;17.87;41.26;102228.09;5023397;28;20045;-72
2022/05/28 10:40:57;;;;;;;4.78;1.20;;;;;;;18.13;40.07;102222.50;5023902;28;20057;-69
2022/05/28 10:43:32;;;;;;;3.80;1.13;;;;;;;18.26;39.44;102226.19;5030619;28;20020;-68
2022/05/28 10:46:13;;;;;;;7.75;1.48;;;;;;;18.37;40.87;102211.66;5022789;28;20078;-68
2022/05/28 10:48:47;;;;;;;9.15;1.45;;;;;;;18.30;39.82;102222.81;5018750;28;20080;-73
2022/05/28 10:51:34;;;;;;;7.90;1.30;;;;;;;18.12;40.25;102226.81;5026043;28;20030;-72
2022/05/28 10:54:02;;;;;;;8.40;1.52;;;;;;;17.85;41.45;102224.59;5024835;28;20136;-72
2022/05/28 10:56:53;;;;;;;8.38;1.50;;;;;;;17.87;42.34;102230.69;5018868;28;20052;-73
2022/05/28 10:59:33;;;;;;;6.20;1.33;;;;;;;17.65;40.87;102221.56;5018975;28;20039;-72
2022/05/28 11:02:34;;;;;;;4.82;1.27;;;;;;;17.94;41.72;102229.06;5016418;28;20497;-72
2022/05/28 11:05:11;;;;;;;6.65;1.13;;;;;;;18.11;40.73;102221.59;4967894;28;20504;-73
2022/05/28 11:07:48;;;;;;;6.90;1.50;;;;;;;18.10;39.63;102220.72;5017339;28;20041;-71
2022/05/28 11:10:19;;;;;;;7.72;1.60;;;;;;;18.16;39.33;102212.16;5013086;28;20124;-72
2022/05/28 11:13:15;;;;;;;6.97;1.30;;;;;;;18.28;40.69;102214.09;5016661;28;20501;-74
2022/05/28 11:16:12;;;;;;;4.68;1.00;;;;;;;18.30;40.04;102208.06;5018577;28;20030;-70
2022/05/28 11:18:54;;;;;;;7.25;1.10;;;;;;;18.19;39.67;102202.66;4989455;28;20120;-70
2022/05/28 11:21:58;;;;;;;5.93;1.20;;;;;;;18.00;38.19;102208.38;5016705;28;20025;-74
2022/05/28 11:24:36;;;;;;;5.85;1.20;;;;;;;18.02;39.46;102209.31;4960036;28;20034;-73
2022/05/28 11:27:01;;;;;;;6.57;1.38;;;;;;;18.13;40.43;102218.16;4961555;28;20034;-74
2022/05/28 11:29:42;;;;;;;5.35;1.38;;;;;;;18.13;39.37;102205.16;4988877;28;20048;-72
2022/05/28 11:32:23;;;;;;;4.28;1.00;;;;;;;18.22;39.44;102207.94;5021428;28;20115;-72
2022/05/28 11:34:59;;;;;;;5.63;1.27;;;;;;;18.22;38.72;102192.31;5025115;28;20029;-71
2022/05/28 11:37:39;;;;;;;5.57;1.23;;;;;;;18.31;38.53;102193.31;5018868;28;20032;-72
2022/05/28 11:40:17;;;;;;;9.98;2.42;;;;;;;18.30;38.77;102195.03;5019377;28;20032;-71